sensor_id;sensor_type;location;lat;lon;timestamp;P1;durP1;ratioP1;P2;durP2;ratioP2
5493;SDS011;2769;49.864;8.656;2023-06-24T00:00:56;7.30;;;4.90;;
5493;SDS011;2769;49.864;8.656;2023-06-24T00:03:24;5.63;;;5.13;;
5493;SDS011;2769;49.864;8.656;2023-06-24T00:05:52;7.90;;;5.47;;
5493;SDS011;2769;49.864;8.656;2023-06-24T00:08:23;8.50;;;5.83;;
5493;SDS011;2769;49.864;8.656;2023-06-24T00:11:00;5.70;;;5.13;;
5493;SDS011;2769;49.864;8.656;2023-06-24T00:13:30;6.00;;;4.93;;
5493;SDS011;2769;49.864;8.656;2023-06-24T00:15:58;5.83;;;5.23;;
5493;SDS011;2769;49.864;8.656;2023-06-24T00:18:26;5.67;;;5.17;;
5493;SDS011;2769;49.864;8.656;2023-06-24T00:20:55;5.50;;;5.10;;
5493;SDS011;2769;49.864;8.656;2023-06-24T00:23:23;6.17;;;5.57;;
5493;SDS011;2769;49.864;8.656;2023-06-24T00:25:52;8.03;;;5.60;;
5493;SDS011;2769;49.864;8.656;2023-06-24T00:28:20;5.47;;;4.97;;
5493;SDS011;2769;49.864;8.656;2023-06-24T00:30:50;5.77;;;5.27;;
5493;SDS011;2769;49.864;8.656;2023-06-24T00:33:18;6.50;;;5.00;;
5493;SDS011;2769;49.864;8.656;2023-06-24T00:35:47;5.27;;;4.77;;
5493;SDS011;2769;49.864;8.656;2023-06-24T00:38:15;6.50;;;5.00;;
5493;SDS011;2769;49.864;8.656;2023-06-24T00:40:43;5.57;;;5.07;;
5493;SDS011;2769;49.864;8.656;2023-06-24T00:43:13;6.10;;;5.50;;
5493;SDS011;2769;49.864;8.656;2023-06-24T00:45:44;5.20;;;4.80;;
5493;SDS011;2769;49.864;8.656;2023-06-24T00:48:16;6.07;;;5.33;;
5493;SDS011;2769;49.864;8.656;2023-06-24T00:50:45;5.03;;;4.63;;
5493;SDS011;2769;49.864;8.656;2023-06-24T00:53:13;5.93;;;5.37;;
5493;SDS011;2769;49.864;8.656;2023-06-24T00:55:41;6.93;;;4.97;;
5493;SDS011;2769;49.864;8.656;2023-06-24T00:58:09;5.57;;;5.07;;
5493;SDS011;2769;49.864;8.656;2023-06-24T01:00:37;5.83;;;5.30;;
5493;SDS011;2769;49.864;8.656;2023-06-24T01:03:05;8.13;;;5.53;;
5493;SDS011;2769;49.864;8.656;2023-06-24T01:05:34;6.10;;;5.50;;
5493;SDS011;2769;49.864;8.656;2023-06-24T01:08:03;7.20;;;5.63;;
5493;SDS011;2769;49.864;8.656;2023-06-24T01:10:31;6.00;;;5.33;;
5493;SDS011;2769;49.864;8.656;2023-06-24T01:13:02;10.80;;;6.20;;
5493;SDS011;2769;49.864;8.656;2023-06-24T01:15:30;7.13;;;6.33;;
5493;SDS011;2769;49.864;8.656;2023-06-24T01:18:00;6.40;;;5.70;;
5493;SDS011;2769;49.864;8.656;2023-06-24T01:20:39;5.20;;;4.70;;
5493;SDS011;2769;49.864;8.656;2023-06-24T01:23:19;5.70;;;5.07;;
5493;SDS011;2769;49.864;8.656;2023-06-24T01:25:59;6.00;;;5.40;;
5493;SDS011;2769;49.864;8.656;2023-06-24T01:28:47;5.90;;;5.40;;
5493;SDS011;2769;49.864;8.656;2023-06-24T01:31:29;11.27;;;4.80;;
5493;SDS011;2769;49.864;8.656;2023-06-24T01:34:02;6.33;;;5.30;;
5493;SDS011;2769;49.864;8.656;2023-06-24T01:36:34;6.23;;;5.63;;
5493;SDS011;2769;49.864;8.656;2023-06-24T01:39:07;6.07;;;5.20;;
5493;SDS011;2769;49.864;8.656;2023-06-24T01:41:40;5.40;;;4.90;;
5493;SDS011;2769;49.864;8.656;2023-06-24T01:44:09;5.20;;;4.70;;
5493;SDS011;2769;49.864;8.656;2023-06-24T01:46:39;5.40;;;4.93;;
5493;SDS011;2769;49.864;8.656;2023-06-24T01:49:09;5.60;;;5.10;;
5493;SDS011;2769;49.864;8.656;2023-06-24T01:51:39;4.90;;;4.50;;
5493;SDS011;2769;49.864;8.656;2023-06-24T01:54:10;4.60;;;4.30;;
5493;SDS011;2769;49.864;8.656;2023-06-24T01:56:41;5.30;;;4.80;;
5493;SDS011;2769;49.864;8.656;2023-06-24T01:59:10;5.27;;;4.77;;
5493;SDS011;2769;49.864;8.656;2023-06-24T02:01:39;5.40;;;4.97;;
5493;SDS011;2769;49.864;8.656;2023-06-24T02:04:07;8.40;;;5.20;;
5493;SDS011;2769;49.864;8.656;2023-06-24T02:06:36;5.63;;;4.93;;
5493;SDS011;2769;49.864;8.656;2023-06-24T02:09:05;5.97;;;5.37;;
5493;SDS011;2769;49.864;8.656;2023-06-24T02:11:34;5.80;;;5.00;;
5493;SDS011;2769;49.864;8.656;2023-06-24T02:14:04;5.57;;;5.10;;
5493;SDS011;2769;49.864;8.656;2023-06-24T02:16:33;5.20;;;4.80;;
5493;SDS011;2769;49.864;8.656;2023-06-24T02:19:03;5.73;;;5.20;;
5493;SDS011;2769;49.864;8.656;2023-06-24T02:21:32;5.30;;;4.90;;
5493;SDS011;2769;49.864;8.656;2023-06-24T02:24:01;5.37;;;4.90;;
5493;SDS011;2769;49.864;8.656;2023-06-24T02:26:31;5.90;;;5.40;;
5493;SDS011;2769;49.864;8.656;2023-06-24T02:28:59;6.03;;;5.37;;
5493;SDS011;2769;49.864;8.656;2023-06-24T02:31:30;6.07;;;5.57;;
5493;SDS011;2769;49.864;8.656;2023-06-24T02:33:58;5.70;;;5.20;;
5493;SDS011;2769;49.864;8.656;2023-06-24T02:36:28;6.57;;;5.97;;
5493;SDS011;2769;49.864;8.656;2023-06-24T02:38:56;5.77;;;5.23;;
5493;SDS011;2769;49.864;8.656;2023-06-24T02:41:24;7.23;;;5.07;;
5493;SDS011;2769;49.864;8.656;2023-06-24T02:43:52;9.70;;;5.97;;
5493;SDS011;2769;49.864;8.656;2023-06-24T02:46:20;6.20;;;5.40;;
5493;SDS011;2769;49.864;8.656;2023-06-24T02:48:48;8.47;;;6.27;;
5493;SDS011;2769;49.864;8.656;2023-06-24T02:51:17;7.13;;;6.30;;
5493;SDS011;2769;49.864;8.656;2023-06-24T02:53:46;6.87;;;5.97;;
5493;SDS011;2769;49.864;8.656;2023-06-24T02:56:16;6.67;;;6.07;;
5493;SDS011;2769;49.864;8.656;2023-06-24T02:58:49;6.57;;;5.63;;
5493;SDS011;2769;49.864;8.656;2023-06-24T03:01:22;7.80;;;5.80;;
5493;SDS011;2769;49.864;8.656;2023-06-24T03:03:53;6.03;;;5.43;;
5493;SDS011;2769;49.864;8.656;2023-06-24T03:06:22;6.93;;;6.20;;
5493;SDS011;2769;49.864;8.656;2023-06-24T03:08:55;6.23;;;5.73;;
5493;SDS011;2769;49.864;8.656;2023-06-24T03:11:25;9.37;;;5.83;;
5493;SDS011;2769;49.864;8.656;2023-06-24T03:13:56;7.33;;;6.40;;
5493;SDS011;2769;49.864;8.656;2023-06-24T03:16:33;8.17;;;6.13;;
5493;SDS011;2769;49.864;8.656;2023-06-24T03:19:07;7.37;;;6.13;;
5493;SDS011;2769;49.864;8.656;2023-06-24T03:21:35;7.40;;;6.40;;
5493;SDS011;2769;49.864;8.656;2023-06-24T03:24:11;6.00;;;5.50;;
5493;SDS011;2769;49.864;8.656;2023-06-24T03:26:41;6.33;;;5.83;;
5493;SDS011;2769;49.864;8.656;2023-06-24T03:29:11;6.27;;;5.67;;
5493;SDS011;2769;49.864;8.656;2023-06-24T03:32:03;7.33;;;6.60;;
5493;SDS011;2769;49.864;8.656;2023-06-24T03:34:31;6.60;;;6.00;;
5493;SDS011;2769;49.864;8.656;2023-06-24T03:36:59;9.10;;;6.43;;
5493;SDS011;2769;49.864;8.656;2023-06-24T03:39:28;6.00;;;5.60;;
5493;SDS011;2769;49.864;8.656;2023-06-24T03:41:56;12.77;;;6.47;;
5493;SDS011;2769;49.864;8.656;2023-06-24T03:44:26;9.97;;;6.90;;
5493;SDS011;2769;49.864;8.656;2023-06-24T03:46:54;6.67;;;6.07;;
5493;SDS011;2769;49.864;8.656;2023-06-24T03:49:22;6.43;;;5.80;;
5493;SDS011;2769;49.864;8.656;2023-06-24T03:51:50;7.53;;;6.47;;
5493;SDS011;2769;49.864;8.656;2023-06-24T03:54:18;7.00;;;6.30;;
5493;SDS011;2769;49.864;8.656;2023-06-24T03:56:52;6.00;;;5.50;;
5493;SDS011;2769;49.864;8.656;2023-06-24T03:59:20;7.40;;;5.73;;
5493;SDS011;2769;49.864;8.656;2023-06-24T04:01:47;7.43;;;5.93;;
5493;SDS011;2769;49.864;8.656;2023-06-24T04:04:19;6.17;;;5.60;;
5493;SDS011;2769;49.864;8.656;2023-06-24T04:06:47;7.30;;;6.07;;
5493;SDS011;2769;49.864;8.656;2023-06-24T04:09:15;6.77;;;6.07;;
5493;SDS011;2769;49.864;8.656;2023-06-24T04:11:43;6.40;;;5.80;;
5493;SDS011;2769;49.864;8.656;2023-06-24T04:14:13;6.90;;;6.20;;
5493;SDS011;2769;49.864;8.656;2023-06-24T04:16:41;7.10;;;6.07;;
5493;SDS011;2769;49.864;8.656;2023-06-24T04:19:09;14.13;;;6.00;;
5493;SDS011;2769;49.864;8.656;2023-06-24T04:21:38;6.20;;;5.60;;
5493;SDS011;2769;49.864;8.656;2023-06-24T04:24:06;7.23;;;6.30;;
5493;SDS011;2769;49.864;8.656;2023-06-24T04:26:34;6.67;;;5.87;;
5493;SDS011;2769;49.864;8.656;2023-06-24T04:29:02;6.40;;;5.80;;
5493;SDS011;2769;49.864;8.656;2023-06-24T04:31:31;10.70;;;6.23;;
5493;SDS011;2769;49.864;8.656;2023-06-24T04:33:59;6.73;;;6.13;;
5493;SDS011;2769;49.864;8.656;2023-06-24T04:36:29;6.30;;;5.70;;
5493;SDS011;2769;49.864;8.656;2023-06-24T04:38:57;6.13;;;5.63;;
5493;SDS011;2769;49.864;8.656;2023-06-24T04:41:24;6.53;;;5.93;;
5493;SDS011;2769;49.864;8.656;2023-06-24T04:43:53;7.40;;;6.37;;
5493;SDS011;2769;49.864;8.656;2023-06-24T04:46:21;6.40;;;5.80;;
5493;SDS011;2769;49.864;8.656;2023-06-24T04:48:50;7.17;;;6.57;;
5493;SDS011;2769;49.864;8.656;2023-06-24T04:51:18;7.47;;;5.67;;
5493;SDS011;2769;49.864;8.656;2023-06-24T04:53:46;11.43;;;6.10;;
5493;SDS011;2769;49.864;8.656;2023-06-24T04:56:14;6.33;;;5.73;;
5493;SDS011;2769;49.864;8.656;2023-06-24T04:58:42;6.30;;;5.80;;
5493;SDS011;2769;49.864;8.656;2023-06-24T05:01:10;6.90;;;6.20;;
5493;SDS011;2769;49.864;8.656;2023-06-24T05:03:38;6.90;;;5.90;;
5493;SDS011;2769;49.864;8.656;2023-06-24T05:06:07;10.07;;;6.47;;
5493;SDS011;2769;49.864;8.656;2023-06-24T05:08:36;7.60;;;6.40;;
5493;SDS011;2769;49.864;8.656;2023-06-24T05:11:04;6.80;;;6.10;;
5493;SDS011;2769;49.864;8.656;2023-06-24T05:13:32;7.57;;;6.87;;
5493;SDS011;2769;49.864;8.656;2023-06-24T05:15:59;9.33;;;5.93;;
5493;SDS011;2769;49.864;8.656;2023-06-24T05:18:27;6.93;;;6.20;;
5493;SDS011;2769;49.864;8.656;2023-06-24T05:20:55;6.77;;;6.17;;
5493;SDS011;2769;49.864;8.656;2023-06-24T05:23:24;6.13;;;5.53;;
5493;SDS011;2769;49.864;8.656;2023-06-24T05:25:52;7.87;;;7.07;;
5493;SDS011;2769;49.864;8.656;2023-06-24T05:28:20;7.73;;;6.93;;
5493;SDS011;2769;49.864;8.656;2023-06-24T05:30:48;8.23;;;6.50;;
5493;SDS011;2769;49.864;8.656;2023-06-24T05:33:16;6.80;;;5.80;;
5493;SDS011;2769;49.864;8.656;2023-06-24T05:35:44;7.20;;;6.40;;
5493;SDS011;2769;49.864;8.656;2023-06-24T05:38:12;6.47;;;5.87;;
5493;SDS011;2769;49.864;8.656;2023-06-24T05:40:42;7.53;;;5.80;;
5493;SDS011;2769;49.864;8.656;2023-06-24T05:43:10;6.67;;;6.00;;
5493;SDS011;2769;49.864;8.656;2023-06-24T05:45:38;7.20;;;6.23;;
5493;SDS011;2769;49.864;8.656;2023-06-24T05:48:06;6.40;;;5.80;;
5493;SDS011;2769;49.864;8.656;2023-06-24T05:50:34;7.50;;;6.13;;
5493;SDS011;2769;49.864;8.656;2023-06-24T05:53:02;6.57;;;5.97;;
5493;SDS011;2769;49.864;8.656;2023-06-24T05:55:30;9.63;;;6.27;;
5493;SDS011;2769;49.864;8.656;2023-06-24T05:57:59;6.50;;;5.90;;
5493;SDS011;2769;49.864;8.656;2023-06-24T06:00:27;7.17;;;6.30;;
5493;SDS011;2769;49.864;8.656;2023-06-24T06:02:55;6.83;;;6.00;;
5493;SDS011;2769;49.864;8.656;2023-06-24T06:05:23;7.90;;;6.73;;
5493;SDS011;2769;49.864;8.656;2023-06-24T06:07:51;7.57;;;6.87;;
5493;SDS011;2769;49.864;8.656;2023-06-24T06:10:20;6.70;;;6.10;;
5493;SDS011;2769;49.864;8.656;2023-06-24T06:12:48;7.67;;;6.20;;
5493;SDS011;2769;49.864;8.656;2023-06-24T06:15:18;7.30;;;5.97;;
5493;SDS011;2769;49.864;8.656;2023-06-24T06:17:46;7.73;;;6.50;;
5493;SDS011;2769;49.864;8.656;2023-06-24T06:20:14;10.67;;;6.40;;
5493;SDS011;2769;49.864;8.656;2023-06-24T06:22:42;7.50;;;6.67;;
5493;SDS011;2769;49.864;8.656;2023-06-24T06:25:10;11.53;;;7.03;;
5493;SDS011;2769;49.864;8.656;2023-06-24T06:27:38;6.30;;;5.67;;
5493;SDS011;2769;49.864;8.656;2023-06-24T06:30:07;8.57;;;6.30;;
5493;SDS011;2769;49.864;8.656;2023-06-24T06:32:36;7.10;;;5.63;;
5493;SDS011;2769;49.864;8.656;2023-06-24T06:35:05;7.00;;;6.40;;
5493;SDS011;2769;49.864;8.656;2023-06-24T06:37:33;10.60;;;5.50;;
5493;SDS011;2769;49.864;8.656;2023-06-24T06:40:01;7.10;;;5.20;;
5493;SDS011;2769;49.864;8.656;2023-06-24T06:42:30;7.30;;;6.23;;
5493;SDS011;2769;49.864;8.656;2023-06-24T06:44:58;7.40;;;5.73;;
5493;SDS011;2769;49.864;8.656;2023-06-24T06:47:25;9.13;;;6.10;;
5493;SDS011;2769;49.864;8.656;2023-06-24T06:49:55;5.40;;;4.77;;
5493;SDS011;2769;49.864;8.656;2023-06-24T06:52:23;6.23;;;5.63;;
5493;SDS011;2769;49.864;8.656;2023-06-24T06:54:51;5.83;;;5.30;;
5493;SDS011;2769;49.864;8.656;2023-06-24T06:57:19;7.47;;;5.10;;
5493;SDS011;2769;49.864;8.656;2023-06-24T06:59:47;5.73;;;5.23;;
5493;SDS011;2769;49.864;8.656;2023-06-24T07:02:16;5.80;;;5.20;;
5493;SDS011;2769;49.864;8.656;2023-06-24T07:04:45;5.93;;;5.33;;
5493;SDS011;2769;49.864;8.656;2023-06-24T07:07:15;8.90;;;5.53;;
5493;SDS011;2769;49.864;8.656;2023-06-24T07:09:43;5.33;;;4.90;;
5493;SDS011;2769;49.864;8.656;2023-06-24T07:12:12;5.20;;;4.33;;
5493;SDS011;2769;49.864;8.656;2023-06-24T07:14:40;8.77;;;5.30;;
5493;SDS011;2769;49.864;8.656;2023-06-24T07:17:09;5.80;;;5.20;;
5493;SDS011;2769;49.864;8.656;2023-06-24T07:19:36;10.40;;;5.00;;
5493;SDS011;2769;49.864;8.656;2023-06-24T07:22:04;5.40;;;4.90;;
5493;SDS011;2769;49.864;8.656;2023-06-24T07:24:34;4.93;;;4.53;;
5493;SDS011;2769;49.864;8.656;2023-06-24T07:27:02;5.37;;;4.87;;
5493;SDS011;2769;49.864;8.656;2023-06-24T07:29:30;5.00;;;4.53;;
5493;SDS011;2769;49.864;8.656;2023-06-24T07:31:58;5.40;;;4.57;;
5493;SDS011;2769;49.864;8.656;2023-06-24T07:34:26;4.97;;;4.57;;
5493;SDS011;2769;49.864;8.656;2023-06-24T07:36:54;6.20;;;4.80;;
5493;SDS011;2769;49.864;8.656;2023-06-24T07:39:21;5.33;;;4.83;;
5493;SDS011;2769;49.864;8.656;2023-06-24T07:41:51;6.20;;;4.30;;
5493;SDS011;2769;49.864;8.656;2023-06-24T07:44:18;5.83;;;5.30;;
5493;SDS011;2769;49.864;8.656;2023-06-24T07:46:46;7.47;;;4.43;;
5493;SDS011;2769;49.864;8.656;2023-06-24T07:49:14;5.20;;;4.70;;
5493;SDS011;2769;49.864;8.656;2023-06-24T07:51:42;5.00;;;4.60;;
5493;SDS011;2769;49.864;8.656;2023-06-24T07:54:11;5.13;;;4.43;;
5493;SDS011;2769;49.864;8.656;2023-06-24T07:56:39;9.10;;;4.57;;
5493;SDS011;2769;49.864;8.656;2023-06-24T07:59:08;4.67;;;4.30;;
5493;SDS011;2769;49.864;8.656;2023-06-24T08:01:36;5.10;;;4.60;;
5493;SDS011;2769;49.864;8.656;2023-06-24T08:04:04;4.20;;;3.90;;
5493;SDS011;2769;49.864;8.656;2023-06-24T08:06:32;4.73;;;4.33;;
5493;SDS011;2769;49.864;8.656;2023-06-24T08:09:00;4.77;;;4.37;;
5493;SDS011;2769;49.864;8.656;2023-06-24T08:11:28;4.17;;;3.87;;
5493;SDS011;2769;49.864;8.656;2023-06-24T08:13:56;4.90;;;4.43;;
5493;SDS011;2769;49.864;8.656;2023-06-24T08:16:25;4.57;;;4.17;;
5493;SDS011;2769;49.864;8.656;2023-06-24T08:18:53;4.17;;;3.80;;
5493;SDS011;2769;49.864;8.656;2023-06-24T08:21:21;4.67;;;4.27;;
5493;SDS011;2769;49.864;8.656;2023-06-24T08:23:49;4.57;;;4.17;;
5493;SDS011;2769;49.864;8.656;2023-06-24T08:26:20;5.43;;;4.03;;
5493;SDS011;2769;49.864;8.656;2023-06-24T08:28:48;5.13;;;4.73;;
5493;SDS011;2769;49.864;8.656;2023-06-24T08:31:16;4.93;;;4.63;;
5493;SDS011;2769;49.864;8.656;2023-06-24T08:33:46;4.57;;;4.27;;
5493;SDS011;2769;49.864;8.656;2023-06-24T08:36:13;4.37;;;3.97;;
5493;SDS011;2769;49.864;8.656;2023-06-24T08:38:41;4.53;;;3.83;;
5493;SDS011;2769;49.864;8.656;2023-06-24T08:41:09;4.57;;;4.17;;
5493;SDS011;2769;49.864;8.656;2023-06-24T08:43:37;4.27;;;3.87;;
5493;SDS011;2769;49.864;8.656;2023-06-24T08:46:06;3.50;;;3.30;;
5493;SDS011;2769;49.864;8.656;2023-06-24T08:48:34;5.60;;;3.43;;
5493;SDS011;2769;49.864;8.656;2023-06-24T08:51:08;4.90;;;3.33;;
5493;SDS011;2769;49.864;8.656;2023-06-24T08:53:37;3.37;;;3.17;;
5493;SDS011;2769;49.864;8.656;2023-06-24T08:56:06;3.60;;;3.30;;
5493;SDS011;2769;49.864;8.656;2023-06-24T08:58:34;5.43;;;3.37;;
5493;SDS011;2769;49.864;8.656;2023-06-24T09:01:02;3.83;;;3.40;;
5493;SDS011;2769;49.864;8.656;2023-06-24T09:03:30;4.47;;;4.07;;
5493;SDS011;2769;49.864;8.656;2023-06-24T09:05:58;4.10;;;3.70;;
5493;SDS011;2769;49.864;8.656;2023-06-24T09:08:27;4.03;;;3.63;;
5493;SDS011;2769;49.864;8.656;2023-06-24T09:10:55;4.60;;;4.30;;
5493;SDS011;2769;49.864;8.656;2023-06-24T09:13:27;6.10;;;4.60;;
5493;SDS011;2769;49.864;8.656;2023-06-24T09:16:11;4.77;;;4.37;;
5493;SDS011;2769;49.864;8.656;2023-06-24T09:18:40;4.60;;;4.30;;
5493;SDS011;2769;49.864;8.656;2023-06-24T09:21:10;4.50;;;4.20;;
5493;SDS011;2769;49.864;8.656;2023-06-24T09:23:39;5.43;;;4.93;;
5493;SDS011;2769;49.864;8.656;2023-06-24T09:26:09;5.20;;;4.70;;
5493;SDS011;2769;49.864;8.656;2023-06-24T09:28:37;5.77;;;5.27;;
5493;SDS011;2769;49.864;8.656;2023-06-24T09:31:05;5.40;;;4.83;;
5493;SDS011;2769;49.864;8.656;2023-06-24T09:33:45;6.80;;;4.73;;
5493;SDS011;2769;49.864;8.656;2023-06-24T09:36:13;5.83;;;4.80;;
5493;SDS011;2769;49.864;8.656;2023-06-24T09:38:43;4.50;;;4.10;;
5493;SDS011;2769;49.864;8.656;2023-06-24T09:41:13;4.17;;;3.63;;
5493;SDS011;2769;49.864;8.656;2023-06-24T09:43:42;4.90;;;4.50;;
5493;SDS011;2769;49.864;8.656;2023-06-24T09:46:11;4.80;;;4.40;;
5493;SDS011;2769;49.864;8.656;2023-06-24T09:48:40;6.20;;;5.60;;
5493;SDS011;2769;49.864;8.656;2023-06-24T09:51:10;5.73;;;5.33;;
5493;SDS011;2769;49.864;8.656;2023-06-24T09:53:39;5.20;;;4.80;;
5493;SDS011;2769;49.864;8.656;2023-06-24T09:56:09;6.93;;;4.80;;
5493;SDS011;2769;49.864;8.656;2023-06-24T09:58:38;5.40;;;4.90;;
5493;SDS011;2769;49.864;8.656;2023-06-24T10:01:09;5.90;;;5.30;;
5493;SDS011;2769;49.864;8.656;2023-06-24T10:03:37;6.47;;;4.93;;
5493;SDS011;2769;49.864;8.656;2023-06-24T10:06:06;5.53;;;4.70;;
5493;SDS011;2769;49.864;8.656;2023-06-24T10:08:34;5.50;;;4.97;;
5493;SDS011;2769;49.864;8.656;2023-06-24T10:11:03;5.60;;;4.57;;
5493;SDS011;2769;49.864;8.656;2023-06-24T10:13:33;4.60;;;4.30;;
5493;SDS011;2769;49.864;8.656;2023-06-24T10:16:01;4.40;;;4.10;;
5493;SDS011;2769;49.864;8.656;2023-06-24T10:18:32;5.47;;;4.40;;
5493;SDS011;2769;49.864;8.656;2023-06-24T10:21:01;3.80;;;3.60;;
5493;SDS011;2769;49.864;8.656;2023-06-24T10:23:30;4.93;;;4.40;;
5493;SDS011;2769;49.864;8.656;2023-06-24T10:25:59;5.37;;;4.67;;
5493;SDS011;2769;49.864;8.656;2023-06-24T10:34:27;4.13;;;3.90;;
5493;SDS011;2769;49.864;8.656;2023-06-24T10:36:56;4.63;;;4.20;;
5493;SDS011;2769;49.864;8.656;2023-06-24T10:39:39;4.50;;;4.10;;
5493;SDS011;2769;49.864;8.656;2023-06-24T10:42:27;4.03;;;3.63;;
5493;SDS011;2769;49.864;8.656;2023-06-24T10:45:00;4.37;;;3.97;;
5493;SDS011;2769;49.864;8.656;2023-06-24T10:47:30;4.80;;;4.30;;
5493;SDS011;2769;49.864;8.656;2023-06-24T10:49:58;5.47;;;4.00;;
5493;SDS011;2769;49.864;8.656;2023-06-24T10:52:26;3.33;;;3.07;;
5493;SDS011;2769;49.864;8.656;2023-06-24T10:54:55;3.77;;;3.47;;
5493;SDS011;2769;49.864;8.656;2023-06-24T10:57:24;4.13;;;3.73;;
5493;SDS011;2769;49.864;8.656;2023-06-24T10:59:53;4.53;;;3.40;;
5493;SDS011;2769;49.864;8.656;2023-06-24T11:02:22;3.63;;;3.43;;
5493;SDS011;2769;49.864;8.656;2023-06-24T11:04:53;3.70;;;3.40;;
5493;SDS011;2769;49.864;8.656;2023-06-24T11:07:22;4.40;;;4.00;;
5493;SDS011;2769;49.864;8.656;2023-06-24T11:09:51;3.33;;;3.13;;
5493;SDS011;2769;49.864;8.656;2023-06-24T11:12:22;3.30;;;2.88;;
5493;SDS011;2769;49.864;8.656;2023-06-24T11:14:51;3.22;;;3.03;;
5493;SDS011;2769;49.864;8.656;2023-06-24T11:17:19;3.57;;;3.37;;
5493;SDS011;2769;49.864;8.656;2023-06-24T11:19:47;3.90;;;3.60;;
5493;SDS011;2769;49.864;8.656;2023-06-24T11:22:17;2.97;;;2.80;;
5493;SDS011;2769;49.864;8.656;2023-06-24T11:24:47;2.95;;;2.75;;
5493;SDS011;2769;49.864;8.656;2023-06-24T11:27:23;2.78;;;2.58;;
5493;SDS011;2769;49.864;8.656;2023-06-24T11:29:51;2.85;;;2.75;;
5493;SDS011;2769;49.864;8.656;2023-06-24T11:32:20;4.30;;;2.70;;
5493;SDS011;2769;49.864;8.656;2023-06-24T11:34:48;3.33;;;2.80;;
5493;SDS011;2769;49.864;8.656;2023-06-24T11:37:18;2.60;;;2.50;;
5493;SDS011;2769;49.864;8.656;2023-06-24T11:39:59;4.30;;;2.63;;
5493;SDS011;2769;49.864;8.656;2023-06-24T11:42:29;2.88;;;2.58;;
5493;SDS011;2769;49.864;8.656;2023-06-24T11:45:01;2.63;;;2.42;;
5493;SDS011;2769;49.864;8.656;2023-06-24T11:47:33;2.88;;;2.78;;
5493;SDS011;2769;49.864;8.656;2023-06-24T11:50:02;3.38;;;3.15;;
5493;SDS011;2769;49.864;8.656;2023-06-24T11:52:42;3.47;;;3.27;;
5493;SDS011;2769;49.864;8.656;2023-06-24T11:55:12;3.50;;;3.23;;
5493;SDS011;2769;49.864;8.656;2023-06-24T11:57:47;3.90;;;3.60;;
5493;SDS011;2769;49.864;8.656;2023-06-24T12:00:22;4.23;;;2.90;;
5493;SDS011;2769;49.864;8.656;2023-06-24T12:02:52;3.50;;;3.20;;
5493;SDS011;2769;49.864;8.656;2023-06-24T12:05:22;3.77;;;3.47;;
5493;SDS011;2769;49.864;8.656;2023-06-24T12:07:57;4.10;;;3.70;;
5493;SDS011;2769;49.864;8.656;2023-06-24T12:10:26;3.00;;;2.80;;
5493;SDS011;2769;49.864;8.656;2023-06-24T12:12:56;3.20;;;3.00;;
5493;SDS011;2769;49.864;8.656;2023-06-24T12:15:24;3.03;;;2.90;;
5493;SDS011;2769;49.864;8.656;2023-06-24T12:17:52;2.93;;;2.83;;
5493;SDS011;2769;49.864;8.656;2023-06-24T12:20:20;3.15;;;2.80;;
5493;SDS011;2769;49.864;8.656;2023-06-24T12:22:48;2.80;;;2.63;;
5493;SDS011;2769;49.864;8.656;2023-06-24T12:25:18;2.40;;;2.30;;
5493;SDS011;2769;49.864;8.656;2023-06-24T12:27:46;2.00;;;2.00;;
5493;SDS011;2769;49.864;8.656;2023-06-24T12:30:17;2.40;;;2.15;;
5493;SDS011;2769;49.864;8.656;2023-06-24T12:32:46;2.42;;;2.33;;
5493;SDS011;2769;49.864;8.656;2023-06-24T12:35:14;2.30;;;2.20;;
5493;SDS011;2769;49.864;8.656;2023-06-24T12:37:42;2.38;;;2.28;;
5493;SDS011;2769;49.864;8.656;2023-06-24T12:40:12;2.60;;;2.40;;
5493;SDS011;2769;49.864;8.656;2023-06-24T12:42:41;3.88;;;2.60;;
5493;SDS011;2769;49.864;8.656;2023-06-24T12:45:09;2.13;;;2.13;;
5493;SDS011;2769;49.864;8.656;2023-06-24T12:47:37;2.90;;;2.45;;
5493;SDS011;2769;49.864;8.656;2023-06-24T12:50:06;4.78;;;2.75;;
5493;SDS011;2769;49.864;8.656;2023-06-24T12:52:36;3.10;;;2.90;;
5493;SDS011;2769;49.864;8.656;2023-06-24T12:55:06;2.90;;;2.70;;
5493;SDS011;2769;49.864;8.656;2023-06-24T12:57:34;3.10;;;3.00;;
5493;SDS011;2769;49.864;8.656;2023-06-24T13:00:05;3.00;;;2.87;;
5493;SDS011;2769;49.864;8.656;2023-06-24T13:02:34;3.43;;;3.23;;
5493;SDS011;2769;49.864;8.656;2023-06-24T13:05:03;3.17;;;2.87;;
5493;SDS011;2769;49.864;8.656;2023-06-24T13:07:31;2.80;;;2.60;;
5493;SDS011;2769;49.864;8.656;2023-06-24T13:09:59;3.03;;;2.83;;
5493;SDS011;2769;49.864;8.656;2023-06-24T13:12:28;2.40;;;2.30;;
5493;SDS011;2769;49.864;8.656;2023-06-24T13:14:56;2.80;;;2.60;;
5493;SDS011;2769;49.864;8.656;2023-06-24T13:17:25;3.17;;;3.08;;
5493;SDS011;2769;49.864;8.656;2023-06-24T13:19:53;2.58;;;2.47;;
5493;SDS011;2769;49.864;8.656;2023-06-24T13:22:21;2.70;;;2.50;;
5493;SDS011;2769;49.864;8.656;2023-06-24T13:24:50;3.35;;;3.10;;
5493;SDS011;2769;49.864;8.656;2023-06-24T13:27:18;2.53;;;2.42;;
5493;SDS011;2769;49.864;8.656;2023-06-24T13:29:46;2.75;;;2.55;;
5493;SDS011;2769;49.864;8.656;2023-06-24T13:32:15;2.42;;;2.42;;
5493;SDS011;2769;49.864;8.656;2023-06-24T13:34:45;2.90;;;2.80;;
5493;SDS011;2769;49.864;8.656;2023-06-24T13:37:13;3.08;;;2.58;;
5493;SDS011;2769;49.864;8.656;2023-06-24T13:39:42;2.95;;;2.72;;
5493;SDS011;2769;49.864;8.656;2023-06-24T13:42:10;2.88;;;2.78;;
5493;SDS011;2769;49.864;8.656;2023-06-24T13:44:39;2.70;;;2.60;;
5493;SDS011;2769;49.864;8.656;2023-06-24T13:47:06;2.70;;;2.60;;
5493;SDS011;2769;49.864;8.656;2023-06-24T13:49:35;2.70;;;2.58;;
5493;SDS011;2769;49.864;8.656;2023-06-24T13:52:04;2.97;;;2.72;;
5493;SDS011;2769;49.864;8.656;2023-06-24T13:54:34;3.33;;;3.08;;
5493;SDS011;2769;49.864;8.656;2023-06-24T13:57:02;3.00;;;2.80;;
5493;SDS011;2769;49.864;8.656;2023-06-24T13:59:33;3.25;;;3.03;;
5493;SDS011;2769;49.864;8.656;2023-06-24T14:02:00;3.88;;;3.20;;
5493;SDS011;2769;49.864;8.656;2023-06-24T14:04:29;3.07;;;2.87;;
5493;SDS011;2769;49.864;8.656;2023-06-24T14:06:57;3.50;;;3.40;;
5493;SDS011;2769;49.864;8.656;2023-06-24T14:09:27;7.00;;;3.37;;
5493;SDS011;2769;49.864;8.656;2023-06-24T14:11:55;3.70;;;3.50;;
5493;SDS011;2769;49.864;8.656;2023-06-24T14:14:23;4.13;;;3.83;;
5493;SDS011;2769;49.864;8.656;2023-06-24T14:16:51;3.57;;;3.37;;
5493;SDS011;2769;49.864;8.656;2023-06-24T14:19:19;4.73;;;3.50;;
5493;SDS011;2769;49.864;8.656;2023-06-24T14:21:49;3.90;;;3.63;;
5493;SDS011;2769;49.864;8.656;2023-06-24T14:24:17;3.40;;;3.20;;
5493;SDS011;2769;49.864;8.656;2023-06-24T14:26:46;4.30;;;3.90;;
5493;SDS011;2769;49.864;8.656;2023-06-24T14:29:15;4.03;;;3.70;;
5493;SDS011;2769;49.864;8.656;2023-06-24T14:31:43;4.23;;;3.97;;
5493;SDS011;2769;49.864;8.656;2023-06-24T14:34:12;6.13;;;3.67;;
5493;SDS011;2769;49.864;8.656;2023-06-24T14:36:40;4.60;;;4.20;;
5493;SDS011;2769;49.864;8.656;2023-06-24T14:39:08;3.80;;;3.43;;
5493;SDS011;2769;49.864;8.656;2023-06-24T14:41:35;3.60;;;3.30;;
5493;SDS011;2769;49.864;8.656;2023-06-24T14:44:05;3.90;;;3.60;;
5493;SDS011;2769;49.864;8.656;2023-06-24T14:46:33;3.97;;;3.77;;
5493;SDS011;2769;49.864;8.656;2023-06-24T14:49:01;4.23;;;3.30;;
5493;SDS011;2769;49.864;8.656;2023-06-24T14:51:29;4.17;;;3.77;;
5493;SDS011;2769;49.864;8.656;2023-06-24T14:53:56;9.17;;;3.83;;
5493;SDS011;2769;49.864;8.656;2023-06-24T14:56:24;3.80;;;3.60;;
5493;SDS011;2769;49.864;8.656;2023-06-24T14:58:52;4.40;;;4.10;;
5493;SDS011;2769;49.864;8.656;2023-06-24T15:01:21;4.33;;;3.87;;
5493;SDS011;2769;49.864;8.656;2023-06-24T15:03:49;4.33;;;4.03;;
5493;SDS011;2769;49.864;8.656;2023-06-24T15:06:17;5.40;;;3.20;;
5493;SDS011;2769;49.864;8.656;2023-06-24T15:08:45;4.03;;;3.73;;
5493;SDS011;2769;49.864;8.656;2023-06-24T15:11:13;3.73;;;3.53;;
5493;SDS011;2769;49.864;8.656;2023-06-24T15:13:41;4.07;;;3.80;;
5493;SDS011;2769;49.864;8.656;2023-06-24T15:16:09;4.00;;;3.50;;
5493;SDS011;2769;49.864;8.656;2023-06-24T15:18:45;4.07;;;3.60;;
5493;SDS011;2769;49.864;8.656;2023-06-24T15:21:13;4.40;;;4.00;;
5493;SDS011;2769;49.864;8.656;2023-06-24T15:24:01;4.33;;;3.90;;
5493;SDS011;2769;49.864;8.656;2023-06-24T15:26:29;4.20;;;3.80;;
5493;SDS011;2769;49.864;8.656;2023-06-24T15:28:57;4.60;;;4.30;;
5493;SDS011;2769;49.864;8.656;2023-06-24T15:31:24;3.90;;;3.50;;
5493;SDS011;2769;49.864;8.656;2023-06-24T15:33:54;3.93;;;3.73;;